Time;durP1;ratioP1;P1;durP2;ratioP2;P2;SDS_P1;SDS_P2;PMS_P1;PMS_P2;Temp;Humidity;BMP_temperature;BMP_pressure;BME280_temperature;BME280_humidity;BME280_pressure;Samples;Min_cycle;Max_cycle;Signal;HPM_P1;HPM_P2
2022/08/05 00:01:20;;;;;;;2.30;1.58;;;31.40;47.10;;;;;;10036369;28;20038;-61
2022/08/05 00:06:10;;;;;;;3.40;1.15;;;31.10;48.00;;;;;;10039154;28;20199;-61
2022/08/05 00:11:04;;;;;;;4.20;1.23;;;31.00;48.40;;;;;;10039121;28;20602;-61
2022/08/05 00:15:55;;;;;;;3.35;1.67;;;30.90;48.50;;;;;;10042755;28;20146;-62
2022/08/05 00:20:46;;;;;;;2.53;1.63;;;30.80;48.80;;;;;;10027973;28;20081;-62
2022/08/05 00:25:36;;;;;;;4.68;1.50;;;30.90;48.90;;;;;;10038371;28;20021;-61
2022/08/05 00:30:27;;;;;;;2.70;1.50;;;30.80;49.00;;;;;;10054214;28;20021;-62
2022/08/05 00:35:18;;;;;;;2.47;1.38;;;31.00;49.10;;;;;;10050983;28;20129;-61
2022/08/05 00:40:09;;;;;;;2.85;1.63;;;31.00;49.70;;;;;;10026893;28;20026;-61
2022/08/05 00:45:00;;;;;;;4.35;1.60;;;31.10;49.10;;;;;;10026633;28;20030;-61
2022/08/05 00:49:51;;;;;;;4.47;1.50;;;31.20;49.00;;;;;;10028607;28;20022;-63
2022/08/05 00:54:42;;;;;;;1.88;1.42;;;31.30;49.00;;;;;;10050590;28;20107;-63
2022/08/05 00:59:32;;;;;;;2.92;1.50;;;31.30;49.20;;;;;;10040132;28;20106;-61
2022/08/05 01:04:23;;;;;;;4.00;1.70;;;31.20;49.40;;;;;;10045531;28;20371;-61
2022/08/05 01:09:13;;;;;;;5.20;1.70;;;31.20;49.50;;;;;;10045125;28;20048;-61
2022/08/05 01:14:24;;;;;;;5.75;1.98;;;31.10;49.60;;;;;;10040397;28;20404;-61
2022/08/05 01:19:23;;;;;;;4.80;1.55;;;31.10;49.60;;;;;;10033718;28;20032;-62
2022/08/05 01:24:30;;;;;;;3.38;1.55;;;31.20;49.50;;;;;;10059441;28;20030;-61
2022/08/05 01:29:30;;;;;;;4.90;1.45;;;31.30;49.60;;;;;;10049558;28;20523;-62
2022/08/05 01:34:22;;;;;;;5.38;1.70;;;31.20;49.90;;;;;;10044650;28;20042;-63
2022/08/05 01:39:15;;;;;;;3.92;1.80;;;31.10;50.50;;;;;;10044651;28;20465;-63
2022/08/05 01:44:07;;;;;;;6.07;2.08;;;31.20;49.90;;;;;;10042007;28;20034;-61
2022/08/05 01:49:00;;;;;;;4.80;2.70;;;31.00;50.20;;;;;;10035394;28;20380;-61
2022/08/05 01:53:52;;;;;;;2.53;1.60;;;30.80;50.30;;;;;;10047806;28;20404;-61
2022/08/05 01:58:44;;;;;;;3.55;1.83;;;30.70;50.50;;;;;;10036657;28;20142;-66
2022/08/05 02:03:39;;;;;;;3.70;1.75;;;30.80;50.50;;;;;;10032817;28;20184;-61
2022/08/05 02:08:31;;;;;;;3.30;1.48;;;30.90;50.40;;;;;;10040300;28;20026;-60
2022/08/05 02:13:46;;;;;;;1.92;1.55;;;30.80;50.60;;;;;;10041720;28;20029;-61
2022/08/05 02:18:46;;;;;;;2.90;1.75;;;31.10;50.60;;;;;;10030694;28;20086;-62
2022/08/05 02:23:41;;;;;;;3.25;1.70;;;31.00;50.70;;;;;;10051927;28;20017;-61
2022/08/05 02:28:35;;;;;;;4.57;2.42;;;31.10;50.60;;;;;;10032949;28;20079;-61
2022/08/05 02:33:26;;;;;;;1.95;1.55;;;31.10;50.60;;;;;;10046582;28;20068;-61
2022/08/05 02:38:18;;;;;;;4.53;1.67;;;31.10;50.60;;;;;;10046911;28;20488;-62
2022/08/05 02:43:12;;;;;;;3.40;1.33;;;31.00;50.90;;;;;;10043644;28;20029;-61
2022/08/05 02:48:03;;;;;;;;;;;30.80;51.00;;;;;;10035679;28;20114;-61
2022/08/05 02:52:54;;;;;;;4.07;2.35;;;30.70;51.00;;;;;;10041532;28;20002;-61
2022/08/05 02:57:46;;;;;;;4.57;2.00;;;30.90;50.80;;;;;;10049297;28;20022;-61
2022/08/05 03:02:39;;;;;;;2.65;1.60;;;30.80;50.90;;;;;;10045556;28;20021;-61
2022/08/05 03:07:31;;;;;;;3.47;2.37;;;30.60;50.90;;;;;;10040314;28;20480;-60
2022/08/05 03:12:38;;;;;;;2.63;2.42;;;30.50;51.10;;;;;;10044814;28;20042;-61
2022/08/05 03:17:29;;;;;;;1.75;1.50;;;30.10;51.60;;;;;;10045418;28;20045;-61
2022/08/05 03:22:19;;;;;;;6.93;2.63;;;30.10;51.90;;;;;;10040649;28;20038;-62
2022/08/05 03:27:11;;;;;;;4.20;2.22;;;29.80;52.30;;;;;;10031529;28;20022;-61
2022/08/05 03:32:03;;;;;;;4.45;2.20;;;29.40;52.80;;;;;;10047058;28;20055;-61
2022/08/05 03:36:54;;;;;;;2.40;2.17;;;29.40;53.10;;;;;;10040635;28;20040;-62
2022/08/05 03:41:45;;;;;;;3.05;1.95;;;29.60;53.10;;;;;;10039161;28;20044;-61
2022/08/05 03:46:35;;;;;;;5.75;2.13;;;29.50;53.40;;;;;;10030293;28;20104;-61
2022/08/05 03:51:41;;;;;;;3.80;2.10;;;29.30;53.90;;;;;;10043640;28;20024;-61
2022/08/05 03:56:41;;;;;;;5.30;2.38;;;29.00;54.70;;;;;;10040588;28;20045;-61
2022/08/05 04:01:38;;;;;;;3.08;2.20;;;28.80;55.40;;;;;;10031961;28;20021;-60
2022/08/05 04:06:29;;;;;;;5.70;2.42;;;28.50;56.50;;;;;;10034027;28;20484;-62
2022/08/05 04:11:20;;;;;;;6.35;2.50;;;28.20;57.90;;;;;;10039448;28;20025;-61
2022/08/05 04:16:12;;;;;;;5.80;2.00;;;27.60;60.10;;;;;;10052781;28;20070;-61
2022/08/05 04:21:03;;;;;;;4.78;2.10;;;27.50;61.20;;;;;;10027393;28;20535;-62
2022/08/05 04:25:54;;;;;;;3.30;1.85;;;26.80;61.90;;;;;;10022792;28;20261;-63
2022/08/05 04:30:45;;;;;;;3.42;2.10;;;26.50;64.00;;;;;;10039221;28;20029;-62
2022/08/05 04:35:36;;;;;;;5.63;1.92;;;26.30;65.00;;;;;;10036690;28;20032;-62
2022/08/05 04:40:27;;;;;;;3.75;1.80;;;26.40;65.20;;;;;;10039213;28;20100;-61
2022/08/05 04:45:17;;;;;;;5.38;2.00;;;26.40;65.90;;;;;;10035742;28;20030;-61
2022/08/05 04:50:08;;;;;;;3.42;2.03;;;26.30;66.50;;;;;;10037471;28;20030;-61
2022/08/05 04:54:59;;;;;;;2.97;1.58;;;26.10;66.90;;;;;;10038328;28;20030;-60
2022/08/05 04:59:50;;;;;;;6.95;1.90;;;26.20;67.40;;;;;;10028168;28;20025;-61
2022/08/05 05:04:41;;;;;;;4.78;1.83;;;26.60;66.70;;;;;;10035283;28;20053;-62
2022/08/05 05:09:31;;;;;;;2.90;1.48;;;27.00;66.60;;;;;;10037239;28;20025;-62
2022/08/05 05:14:22;;;;;;;3.00;1.52;;;27.40;66.00;;;;;;10042843;28;20073;-62
2022/08/05 05:19:13;;;;;;;1.92;1.67;;;27.50;65.80;;;;;;10036770;28;20037;-62
2022/08/05 05:24:04;;;;;;;5.65;2.03;;;27.60;66.10;;;;;;10032110;28;20077;-63
2022/08/05 05:28:54;;;;;;;5.65;2.08;;;27.70;66.20;;;;;;10036480;28;20022;-62
2022/08/05 05:33:45;;;;;;;3.63;2.15;;;27.70;66.70;;;;;;10035107;28;20411;-62
2022/08/05 05:38:36;;;;;;;3.17;2.03;;;27.80;66.80;;;;;;10032746;28;20026;-61
2022/08/05 05:43:26;;;;;;;3.85;2.50;;;28.00;66.70;;;;;;10025697;28;20022;-63
2022/08/05 05:48:17;;;;;;;3.00;1.80;;;27.90;66.80;;;;;;10035735;28;20026;-61
2022/08/05 05:53:08;;;;;;;2.97;2.13;;;28.10;66.40;;;;;;10042994;28;20436;-61
2022/08/05 05:57:59;;;;;;;5.20;3.03;;;28.10;66.30;;;;;;10043612;28;20022;-61
2022/08/05 06:02:49;;;;;;;3.08;1.88;;;28.20;66.10;;;;;;10034880;28;20427;-61
2022/08/05 06:07:41;;;;;;;1.83;1.70;;;28.30;65.80;;;;;;10041664;28;20056;-62
2022/08/05 06:12:33;;;;;;;2.25;2.03;;;28.20;65.90;;;;;;10049360;28;20132;-61
2022/08/05 06:17:24;;;;;;;4.10;2.20;;;28.40;65.30;;;;;;10034926;28;20037;-71
2022/08/05 06:22:25;;;;;;;3.03;1.90;;;28.40;65.20;;;;;;10052490;28;20127;-65
2022/08/05 06:27:16;;;;;;;3.10;1.98;;;28.60;64.70;;;;;;10033865;28;20025;-61
2022/08/05 06:32:07;;;;;;;5.78;2.92;;;28.60;64.30;;;;;;10044499;28;20037;-63
2022/08/05 06:36:58;;;;;;;6.53;1.85;;;28.60;64.30;;;;;;10055766;28;20095;-67
2022/08/05 06:41:49;;;;;;;3.83;1.90;;;28.30;64.60;;;;;;10053313;28;20064;-68
2022/08/05 06:46:39;;;;;;;3.25;2.20;;;28.20;64.50;;;;;;10042292;28;21025;-69
2022/08/05 06:51:30;;;;;;;2.63;1.75;;;28.50;63.90;;;;;;10039777;28;20036;-67
2022/08/05 06:56:21;;;;;;;2.53;1.90;;;28.30;63.90;;;;;;10046737;28;20033;-68
2022/08/05 07:01:11;;;;;;;3.38;2.05;;;28.40;63.70;;;;;;10043249;28;20033;-67
2022/08/05 07:06:03;;;;;;;1.92;1.63;;;28.50;63.60;;;;;;10044914;28;20029;-67
2022/08/05 07:10:54;;;;;;;3.78;2.05;;;28.50;63.30;;;;;;10041454;28;20026;-67
2022/08/05 07:20:54;;;;;;;4.95;2.60;;;28.30;63.90;;;;;;10039058;28;20279;-67
2022/08/05 07:25:44;;;;;;;3.92;2.50;;;28.30;63.80;;;;;;10030999;28;20040;-65
2022/08/05 07:30:36;;;;;;;2.47;1.88;;;28.50;63.40;;;;;;10035165;28;20101;-69
2022/08/05 07:35:27;;;;;;;3.17;1.73;;;28.60;63.40;;;;;;10053808;28;20061;-69
2022/08/05 07:40:18;;;;;;;4.85;2.15;;;28.60;63.40;;;;;;10052544;28;20290;-70
2022/08/05 07:45:09;;;;;;;2.33;2.03;;;28.80;63.10;;;;;;10052041;28;20025;-68
2022/08/05 07:49:59;;;;;;;3.20;1.73;;;28.90;63.10;;;;;;10048017;28;20041;-67
2022/08/05 07:54:50;;;;;;;5.30;1.80;;;29.10;62.80;;;;;;10050371;28;20049;-70
2022/08/05 07:59:41;;;;;;;3.20;2.03;;;29.30;62.60;;;;;;10053253;28;20074;-65
2022/08/05 08:04:31;;;;;;;3.83;2.53;;;29.50;62.30;;;;;;10051945;28;20159;-66
2022/08/05 08:09:23;;;;;;;2.65;2.15;;;29.60;62.20;;;;;;10051562;28;20389;-68
2022/08/05 08:14:14;;;;;;;3.33;1.83;;;29.80;61.70;;;;;;10045154;28;20140;-68
2022/08/05 08:19:05;;;;;;;3.33;1.70;;;29.90;61.60;;;;;;10031861;28;20504;-65
2022/08/05 08:23:55;;;;;;;3.08;2.05;;;29.90;61.30;;;;;;10036660;28;20037;-66
2022/08/05 08:28:46;;;;;;;3.47;1.55;;;29.80;61.30;;;;;;10042333;28;20025;-70
2022/08/05 08:33:37;;;;;;;4.18;1.75;;;29.70;61.20;;;;;;10034508;28;20029;-65
2022/08/05 08:38:28;;;;;;;2.00;1.60;;;29.80;60.70;;;;;;10051418;28;20449;-67
2022/08/05 08:43:20;;;;;;;3.30;1.90;;;29.70;60.50;;;;;;10026854;28;20022;-67
2022/08/05 08:48:14;;;;;;;4.22;2.05;;;29.80;60.20;;;;;;10033976;28;20021;-69
2022/08/05 08:53:06;;;;;;;5.22;1.98;;;29.80;60.10;;;;;;10039649;28;20128;-66
2022/08/05 08:57:59;;;;;;;4.57;2.22;;;30.00;59.80;;;;;;10050930;28;20071;-69
2022/08/05 09:02:51;;;;;;;4.70;2.27;;;30.10;59.30;;;;;;10038330;28;20108;-68
2022/08/05 09:07:42;;;;;;;3.72;2.13;;;30.30;59.20;;;;;;10058109;28;20018;-68
2022/08/05 09:12:33;;;;;;;2.00;1.75;;;30.20;59.00;;;;;;10049929;28;20056;-69
2022/08/05 09:17:24;;;;;;;2.22;1.90;;;30.00;58.90;;;;;;10033149;28;20128;-67
2022/08/05 09:22:15;;;;;;;3.83;2.20;;;30.00;59.10;;;;;;10035497;28;20108;-69
2022/08/05 09:27:08;;;;;;;2.53;1.90;;;29.80;59.20;;;;;;10043751;28;20114;-66
2022/08/05 09:32:04;;;;;;;3.38;1.85;;;30.10;58.80;;;;;;10027816;28;20101;-68
2022/08/05 09:36:55;;;;;;;2.88;2.28;;;30.40;58.50;;;;;;10045849;28;20115;-63
2022/08/05 09:42:03;;;;;;;2.95;2.05;;;30.40;58.40;;;;;;10039723;28;20612;-70
2022/08/05 09:47:13;;;;;;;2.05;1.60;;;30.60;58.10;;;;;;10057246;28;20025;-71
2022/08/05 09:52:16;;;;;;;6.47;2.35;;;30.70;57.80;;;;;;10041993;28;20033;-62
2022/08/05 09:57:07;;;;;;;5.90;2.17;;;30.70;57.70;;;;;;10056949;28;20529;-68
2022/08/05 10:01:57;;;;;;;3.33;1.95;;;30.70;57.60;;;;;;10038595;28;20086;-67
2022/08/05 10:06:56;;;;;;;4.30;1.90;;;31.00;57.20;;;;;;10060244;28;20535;-71
2022/08/05 10:11:47;;;;;;;3.05;2.15;;;31.10;56.90;;;;;;10050612;28;20051;-68
2022/08/05 10:16:38;;;;;;;4.63;2.42;;;31.20;56.50;;;;;;10035634;28;20046;-69
2022/08/05 10:21:29;;;;;;;2.63;2.33;;;30.90;56.40;;;;;;10042013;28;20438;-68
2022/08/05 10:26:20;;;;;;;2.22;1.80;;;30.80;56.40;;;;;;10049393;28;20038;-68
2022/08/05 10:31:15;;;;;;;2.22;2.03;;;31.00;56.20;;;;;;10031040;28;20029;-71
2022/08/05 10:36:06;;;;;;;4.80;2.30;;;31.10;55.90;;;;;;10038918;28;20526;-70
2022/08/05 10:41:20;;;;;;;3.78;2.17;;;31.30;56.00;;;;;;10033475;28;20030;-69
2022/08/05 10:46:13;;;;;;;2.85;1.73;;;31.70;55.40;;;;;;10038165;28;20041;-63
2022/08/05 10:51:16;;;;;;;2.93;2.03;;;31.80;55.30;;;;;;10041604;28;20025;-63
2022/08/05 10:56:16;;;;;;;3.40;1.93;;;31.60;55.30;;;;;;10042133;28;20045;-65
2022/08/05 11:01:07;;;;;;;2.17;1.95;;;31.90;55.00;;;;;;10041803;28;20523;-64
2022/08/05 11:06:10;;;;;;;1.95;1.80;;;32.20;54.70;;;;;;10040742;28;20030;-64
2022/08/05 11:11:35;;;;;;;2.63;2.17;;;32.00;54.90;;;;;;10039650;28;20400;-63
2022/08/05 11:16:25;;;;;;;3.40;2.30;;;32.20;54.00;;;;;;10044897;28;20050;-63
2022/08/05 11:21:32;;;;;;;2.72;1.88;;;32.30;53.80;;;;;;10038080;28;20033;-62
2022/08/05 11:26:24;;;;;;;2.05;1.70;;;32.40;53.40;;;;;;10031191;28;20037;-63
2022/08/05 11:31:14;;;;;;;3.25;2.17;;;32.50;53.50;;;;;;10042046;28;20079;-63
2022/08/05 11:36:10;;;;;;;3.03;1.83;;;32.70;53.40;;;;;;10048278;28;20088;-62
2022/08/05 11:41:05;;;;;;;4.40;1.58;;;32.70;53.20;;;;;;10055749;28;20026;-64
2022/08/05 11:45:57;;;;;;;3.50;1.90;;;32.90;52.90;;;;;;10052102;28;20108;-67
2022/08/05 11:50:52;;;;;;;3.15;2.03;;;33.20;52.40;;;;;;10053677;28;20033;-64
2022/08/05 11:55:52;;;;;;;4.68;1.95;;;33.30;52.20;;;;;;10050176;28;20491;-71
2022/08/05 12:00:43;;;;;;;2.92;2.00;;;33.70;51.90;;;;;;10047035;28;20034;-68
2022/08/05 12:05:34;;;;;;;3.13;2.25;;;33.70;51.80;;;;;;10041050;28;20052;-66
2022/08/05 12:10:26;;;;;;;4.15;1.77;;;33.90;51.50;;;;;;10036852;28;20491;-69
2022/08/05 12:15:21;;;;;;;1.85;1.65;;;33.80;51.30;;;;;;10046009;28;20114;-68
2022/08/05 12:20:12;;;;;;;1.88;1.60;;;33.70;51.10;;;;;;10030884;28;20037;-67
2022/08/05 12:25:03;;;;;;;1.48;1.33;;;33.70;50.90;;;;;;10026604;28;20026;-65
2022/08/05 12:29:58;;;;;;;2.53;1.85;;;33.40;51.00;;;;;;10037979;28;20025;-66
2022/08/05 12:34:49;;;;;;;3.38;1.52;;;33.20;51.50;;;;;;10050500;28;20033;-68
2022/08/05 12:39:39;;;;;;;2.40;1.70;;;33.10;51.80;;;;;;10052247;28;20014;-66
2022/08/05 12:44:30;;;;;;;3.95;2.28;;;33.40;51.90;;;;;;10049816;28;20309;-67
2022/08/05 12:49:21;;;;;;;2.28;1.85;;;33.50;52.00;;;;;;10037657;28;20033;-71
2022/08/05 12:54:19;;;;;;;3.95;1.95;;;33.70;52.10;;;;;;10049638;28;20072;-70
2022/08/05 12:59:18;;;;;;;2.08;1.60;;;33.80;52.30;;;;;;10055905;28;20112;-72
2022/08/05 13:04:10;;;;;;;2.50;1.83;;;34.10;52.00;;;;;;10037079;28;20076;-70
2022/08/05 13:09:06;;;;;;;2.63;2.00;;;34.20;51.80;;;;;;10056979;28;20408;-68
2022/08/05 13:13:58;;;;;;;2.95;2.65;;;33.90;52.10;;;;;;10040208;28;20455;-67
2022/08/05 13:18:53;;;;;;;2.67;2.13;;;33.90;52.20;;;;;;10043891;28;20295;-73
2022/08/05 13:23:44;;;;;;;3.15;1.98;;;34.00;51.80;;;;;;10050793;28;20079;-70
2022/08/05 13:28:34;;;;;;;3.47;1.77;;;33.70;51.90;;;;;;10057837;28;20079;-70
2022/08/05 13:33:25;;;;;;;3.83;2.30;;;33.80;52.30;;;;;;10064186;28;20111;-69
2022/08/05 13:38:16;;;;;;;3.30;2.50;;;33.20;52.60;;;;;;10051354;28;20029;-71
2022/08/05 13:43:06;;;;;;;3.50;2.50;;;32.30;54.10;;;;;;10035651;28;20032;-69
2022/08/05 13:47:57;;;;;;;2.85;1.92;;;32.20;54.60;;;;;;10042596;28;20109;-70
2022/08/05 13:52:48;;;;;;;3.20;2.10;;;32.30;54.70;;;;;;10050196;28;20219;-71
2022/08/05 13:57:38;;;;;;;4.20;1.90;;;32.10;55.20;;;;;;10054612;28;20037;-68
2022/08/05 14:02:29;;;;;;;2.63;2.40;;;32.00;55.40;;;;;;10055154;28;20124;-72
2022/08/05 14:07:25;;;;;;;2.35;2.00;;;31.50;55.90;;;;;;10052144;28;20536;-68
2022/08/05 14:12:16;;;;;;;3.35;2.38;;;31.20;56.50;;;;;;10040614;28;20049;-70
2022/08/05 14:17:07;;;;;;;3.13;2.00;;;31.10;57.10;;;;;;10047858;28;20130;-69
2022/08/05 14:21:58;;;;;;;3.22;2.60;;;31.10;57.50;;;;;;10044961;28;20181;-68
2022/08/05 14:26:49;;;;;;;3.45;2.33;;;31.10;57.60;;;;;;10046208;28;20091;-67
2022/08/05 14:31:39;;;;;;;2.90;2.00;;;31.30;57.50;;;;;;10034618;28;20451;-69
2022/08/05 14:36:30;;;;;;;3.83;2.10;;;31.10;57.80;;;;;;10053811;28;20034;-66
2022/08/05 14:41:21;;;;;;;5.18;2.03;;;31.10;57.60;;;;;;10044191;28;20036;-65
2022/08/05 14:46:12;;;;;;;2.33;2.13;;;31.00;57.70;;;;;;10045171;28;20033;-71
2022/08/05 14:51:03;;;;;;;2.53;1.70;;;30.90;58.10;;;;;;10052560;28;20495;-69
2022/08/05 14:55:53;;;;;;;2.53;1.98;;;30.80;58.10;;;;;;10052051;28;20060;-76
2022/08/05 15:00:45;;;;;;;3.45;2.03;;;30.80;58.00;;;;;;10044079;28;20045;-73
2022/08/05 15:05:36;;;;;;;6.18;2.20;;;30.80;58.30;;;;;;10051811;28;20037;-69
2022/08/05 15:10:27;;;;;;;3.33;2.40;;;31.20;57.90;;;;;;10050354;28;20023;-70
2022/08/05 15:15:18;;;;;;;2.10;1.90;;;31.10;58.20;;;;;;10043931;28;20049;-67
2022/08/05 15:20:10;;;;;;;5.15;2.25;;;31.10;58.10;;;;;;10054826;28;20022;-70
2022/08/05 15:25:01;;;;;;;2.85;1.95;;;30.60;58.60;;;;;;10054959;28;20033;-70
2022/08/05 15:29:52;;;;;;;2.75;1.90;;;30.40;58.70;;;;;;10055757;28;20033;-70
2022/08/05 15:34:43;;;;;;;4.25;1.63;;;30.10;58.80;;;;;;10052467;28;20029;-69
2022/08/05 15:39:33;;;;;;;3.33;1.80;;;30.10;58.70;;;;;;10054734;28;20025;-69
2022/08/05 15:44:28;;;;;;;2.28;1.80;;;30.20;58.50;;;;;;10048968;28;20026;-69
2022/08/05 15:49:18;;;;;;;5.28;1.98;;;30.60;58.10;;;;;;10050181;28;20025;-70
2022/08/05 15:54:09;;;;;;;3.22;2.08;;;31.50;57.30;;;;;;10056227;28;20518;-69
2022/08/05 15:58:59;;;;;;;3.38;2.33;;;31.60;57.10;;;;;;10051750;28;20108;-70
2022/08/05 16:03:50;;;;;;;1.85;1.33;;;31.70;56.80;;;;;;10045134;28;20407;-68
2022/08/05 16:08:41;;;;;;;2.10;1.63;;;31.60;56.70;;;;;;10039609;28;20510;-70
2022/08/05 16:13:31;;;;;;;2.33;1.35;;;31.00;57.20;;;;;;10047299;28;20449;-69
2022/08/05 16:18:22;;;;;;;3.67;2.08;;;30.80;57.20;;;;;;10053426;28;20041;-70
2022/08/05 16:23:13;;;;;;;4.65;2.15;;;30.90;57.00;;;;;;10032928;28;20036;-69
2022/08/05 16:28:05;;;;;;;4.20;1.67;;;30.80;57.10;;;;;;10040884;28;20037;-70
2022/08/05 16:32:56;;;;;;;3.35;1.90;;;30.60;57.30;;;;;;10036676;28;20035;-67
2022/08/05 16:37:47;;;;;;;4.93;2.08;;;30.60;57.10;;;;;;10044528;28;20021;-68
2022/08/05 16:42:37;;;;;;;2.47;1.90;;;30.60;57.10;;;;;;10035244;28;20465;-70
2022/08/05 16:47:28;;;;;;;4.40;1.80;;;31.20;56.80;;;;;;10038701;28;20539;-69
2022/08/05 16:52:19;;;;;;;2.88;1.60;;;32.30;55.60;;;;;;10047696;28;20498;-69
2022/08/05 16:57:09;;;;;;;2.70;1.50;;;32.70;54.60;;;;;;10049122;28;20600;-69
2022/08/05 17:02:00;;;;;;;1.92;1.60;;;32.30;54.70;;;;;;10050212;28;20030;-69
2022/08/05 17:06:51;;;;;;;2.38;1.63;;;32.20;54.70;;;;;;10049382;28;20033;-68
2022/08/05 17:11:41;;;;;;;1.83;1.50;;;31.70;54.80;;;;;;10050810;28;20061;-69
2022/08/05 17:16:36;;;;;;;1.88;1.70;;;31.30;55.00;;;;;;10030498;28;20235;-68
2022/08/05 17:21:27;;;;;;;3.45;1.90;;;30.60;55.30;;;;;;10026893;28;20528;-68
2022/08/05 17:26:18;;;;;;;3.05;2.25;;;30.40;55.40;;;;;;10043453;28;20057;-71
2022/08/05 17:31:08;;;;;;;2.80;1.80;;;29.80;55.50;;;;;;10047821;28;20064;-72
2022/08/05 17:35:59;;;;;;;2.10;1.50;;;29.90;55.30;;;;;;10052855;28;20211;-72
2022/08/05 17:40:50;;;;;;;3.90;1.95;;;29.70;55.30;;;;;;10056071;28;20036;-71
2022/08/05 17:45:40;;;;;;;5.15;2.17;;;29.70;55.30;;;;;;10026295;28;20107;-67
2022/08/05 17:50:31;;;;;;;2.72;1.73;;;29.70;55.30;;;;;;10043918;28;20064;-68
2022/08/05 17:55:22;;;;;;;2.92;1.75;;;29.60;55.30;;;;;;10050017;28;20041;-69
2022/08/05 18:00:13;;;;;;;3.25;1.70;;;29.40;55.60;;;;;;10058350;28;20112;-69
2022/08/05 18:05:04;;;;;;;4.22;2.35;;;29.50;55.60;;;;;;10056188;28;20045;-69
2022/08/05 18:09:55;;;;;;;2.60;1.60;;;29.30;55.80;;;;;;10049420;28;20030;-66
2022/08/05 18:14:45;;;;;;;3.80;1.95;;;29.20;56.50;;;;;;10054547;28;20519;-68
2022/08/05 18:19:36;;;;;;;2.67;1.98;;;29.20;56.80;;;;;;10052691;28;20030;-71
2022/08/05 18:24:28;;;;;;;2.38;1.90;;;29.10;57.40;;;;;;10042669;28;20061;-70
2022/08/05 18:29:19;;;;;;;3.05;1.90;;;28.90;57.80;;;;;;10043792;28;20037;-68
2022/08/05 18:34:09;;;;;;;5.03;2.33;;;28.80;58.10;;;;;;10036647;28;20065;-67
2022/08/05 18:39:01;;;;;;;4.18;2.63;;;28.60;58.40;;;;;;10038561;28;20068;-67
2022/08/05 18:43:52;;;;;;;5.22;2.80;;;28.80;58.60;;;;;;10032613;28;20507;-66
2022/08/05 18:48:43;;;;;;;2.80;2.28;;;28.60;59.40;;;;;;10036147;28;20020;-68
2022/08/05 18:53:33;;;;;;;3.38;2.35;;;28.50;60.80;;;;;;10051532;28;20063;-70
2022/08/05 18:58:24;;;;;;;5.45;2.97;;;28.40;61.60;;;;;;10052883;28;20017;-72
2022/08/05 19:03:14;;;;;;;6.05;2.90;;;28.10;62.90;;;;;;10050146;28;20034;-73
2022/08/05 19:08:07;;;;;;;2.90;2.50;;;27.80;63.30;;;;;;10032359;28;20090;-55
2022/08/05 19:12:58;;;;;;;5.18;3.13;;;27.70;63.10;;;;;;10044216;28;20445;-61
2022/08/05 19:17:48;;;;;;;3.47;2.50;;;27.60;63.00;;;;;;10062649;28;20057;-67
2022/08/05 19:22:40;;;;;;;5.97;2.22;;;27.60;62.60;;;;;;10031200;28;20022;-65
2022/08/05 19:27:31;;;;;;;3.17;2.10;;;27.50;62.30;;;;;;10034888;28;20412;-59
2022/08/05 19:32:22;;;;;;;3.95;2.45;;;27.50;61.90;;;;;;10031366;28;20047;-60
2022/08/05 19:37:13;;;;;;;2.60;2.00;;;27.40;61.60;;;;;;10041399;28;20268;-62
2022/08/05 19:42:04;;;;;;;3.75;2.33;;;27.30;61.70;;;;;;10038701;28;20029;-60
2022/08/05 19:46:55;;;;;;;2.50;2.10;;;27.30;61.40;;;;;;10065922;28;20369;-51
2022/08/05 19:51:46;;;;;;;2.10;1.92;;;27.30;61.40;;;;;;10030158;28;20657;-51
2022/08/05 19:56:37;;;;;;;3.78;2.72;;;27.30;61.30;;;;;;10050637;28;20037;-55
2022/08/05 20:01:27;;;;;;;4.68;2.97;;;27.40;60.90;;;;;;10039415;28;20040;-54
2022/08/05 20:06:18;;;;;;;2.83;2.08;;;27.50;60.80;;;;;;10047159;28;20419;-63
2022/08/05 20:11:09;;;;;;;3.30;2.53;;;27.30;60.60;;;;;;10050012;28;20027;-60
2022/08/05 20:15:59;;;;;;;2.40;1.95;;;27.20;60.60;;;;;;10052663;28;20244;-59
2022/08/05 20:20:50;;;;;;;2.30;1.75;;;27.10;60.00;;;;;;10049879;28;20487;-58
2022/08/05 20:25:40;;;;;;;2.33;1.98;;;27.00;59.60;;;;;;10043354;28;20021;-59
2022/08/05 20:30:31;;;;;;;3.10;2.13;;;26.90;59.30;;;;;;10044751;28;20381;-62
2022/08/05 20:35:22;;;;;;;4.03;2.35;;;26.80;59.20;;;;;;10050010;28;20037;-60
2022/08/05 20:40:13;;;;;;;2.53;1.77;;;27.10;58.90;;;;;;10049595;28;20021;-64
2022/08/05 20:45:05;;;;;;;2.05;1.58;;;27.00;59.10;;;;;;10049522;28;20037;-62
2022/08/05 20:49:56;;;;;;;2.78;2.00;;;27.10;59.10;;;;;;10026754;28;20026;-61
2022/08/05 20:54:46;;;;;;;4.93;1.60;;;26.90;58.90;;;;;;10043562;28;20222;-64
2022/08/05 20:59:37;;;;;;;3.28;2.10;;;26.70;58.70;;;;;;10034600;28;20022;-61
2022/08/05 21:04:29;;;;;;;7.45;1.42;;;26.40;58.70;;;;;;10065047;28;20441;-62
2022/08/05 21:09:20;;;;;;;1.25;1.15;;;26.20;58.70;;;;;;10044059;28;20037;-63
2022/08/05 21:14:11;;;;;;;2.75;1.60;;;26.30;58.80;;;;;;10043055;28;20048;-63
2022/08/05 21:19:02;;;;;;;2.35;1.20;;;26.20;58.80;;;;;;10044465;28;20034;-61
2022/08/05 21:23:52;;;;;;;3.88;1.50;;;26.20;58.90;;;;;;10045067;28;20037;-62
2022/08/05 21:28:43;;;;;;;1.98;1.33;;;26.30;58.70;;;;;;10044957;28;20036;-62
2022/08/05 21:33:34;;;;;;;2.38;1.77;;;26.20;58.90;;;;;;10033859;28;20022;-62
2022/08/05 21:38:26;;;;;;;4.10;1.95;;;26.20;59.10;;;;;;10033035;28;20026;-61
2022/08/05 21:43:17;;;;;;;2.53;1.52;;;26.20;59.10;;;;;;10049989;28;20633;-61
2022/08/05 21:48:08;;;;;;;1.20;1.10;;;26.10;59.50;;;;;;10038748;28;20036;-65
2022/08/05 21:52:59;;;;;;;1.70;1.27;;;25.90;59.90;;;;;;10051521;28;20132;-59
2022/08/05 21:57:49;;;;;;;2.88;1.65;;;25.90;60.20;;;;;;10043301;28;20056;-59
2022/08/05 22:02:41;;;;;;;2.20;0.90;;;25.80;60.20;;;;;;10039150;28;20030;-60
2022/08/05 22:07:32;;;;;;;1.77;1.40;;;25.60;60.80;;;;;;10044531;28;20406;-62
2022/08/05 22:12:22;;;;;;;2.60;1.27;;;25.50;61.70;;;;;;10048221;28;20029;-62
2022/08/05 22:17:13;;;;;;;2.35;1.27;;;25.60;61.00;;;;;;10056597;28;20183;-61
2022/08/05 22:22:04;;;;;;;2.63;1.17;;;25.50;61.30;;;;;;10032357;28;20403;-61
2022/08/05 22:32:05;;;;;;;2.55;1.30;;;25.70;61.20;;;;;;10046882;28;20041;-61
2022/08/05 22:36:56;;;;;;;3.45;1.90;;;25.60;61.40;;;;;;10042885;28;20296;-61
2022/08/05 22:41:47;;;;;;;5.30;1.55;;;25.70;61.40;;;;;;10043275;28;20131;-63
2022/08/05 22:46:38;;;;;;;3.72;1.42;;;25.70;61.40;;;;;;10043101;28;20045;-63
2022/08/05 22:51:29;;;;;;;4.47;1.73;;;25.60;61.80;;;;;;10039232;28;20029;-62
2022/08/05 22:56:20;;;;;;;2.92;1.30;;;25.50;62.30;;;;;;10052406;28;20033;-62
2022/08/05 23:01:10;;;;;;;2.72;1.30;;;25.40;62.30;;;;;;10046465;28;20025;-66
2022/08/05 23:06:01;;;;;;;2.58;1.48;;;25.50;62.30;;;;;;10032894;28;20197;-62
2022/08/05 23:10:52;;;;;;;2.33;1.20;;;25.30;62.60;;;;;;10049166;28;20022;-62
2022/08/05 23:15:43;;;;;;;1.27;1.08;;;25.40;62.40;;;;;;10035478;28;20053;-63
2022/08/05 23:20:34;;;;;;;1.92;1.02;;;25.30;63.20;;;;;;10028471;28;20048;-63
2022/08/05 23:25:25;;;;;;;1.05;0.95;;;25.30;62.50;;;;;;10040971;28;20483;-62
2022/08/05 23:30:16;;;;;;;1.80;1.10;;;25.10;62.60;;;;;;10037480;28;20014;-62
2022/08/05 23:35:07;;;;;;;2.20;1.02;;;25.10;62.50;;;;;;10028843;28;20116;-63
2022/08/05 23:39:57;;;;;;;1.58;1.48;;;25.00;62.60;;;;;;10039204;28;20439;-64
2022/08/05 23:44:48;;;;;;;2.05;1.20;;;25.00;62.70;;;;;;10040779;28;20033;-63
2022/08/05 23:49:39;;;;;;;1.40;1.30;;;24.90;62.70;;;;;;10028052;28;20100;-63
2022/08/05 23:54:32;;;;;;;1.33;1.20;;;24.90;62.70;;;;;;10042905;28;20072;-62
2022/08/05 23:59:23;;;;;;;3.40;1.30;;;24.90;62.80;;;;;;10047168;28;20619;-63
